createdAt,value
2024-01-28T00:01:12.639Z,1
2024-01-28T00:02:26.932Z,0.9
2024-01-28T00:03:41.226Z,0.9
2024-01-28T00:04:55.519Z,0.9
2024-01-28T00:06:09.812Z,0.8
2024-01-28T00:07:23.121Z,0.8
2024-01-28T00:08:37.415Z,0.9
2024-01-28T00:09:51.708Z,0.9
2024-01-28T00:11:06.001Z,0.9
2024-01-28T00:12:20.294Z,1
2024-01-28T00:13:34.587Z,1
2024-01-28T00:14:48.882Z,1
2024-01-28T00:16:03.175Z,1
2024-01-28T00:17:17.468Z,1
2024-01-28T00:18:31.761Z,1
2024-01-28T00:19:46.054Z,1
2024-01-28T00:21:00.347Z,1
2024-01-28T00:22:14.640Z,1
2024-01-28T00:23:27.950Z,0.9
2024-01-28T00:24:42.243Z,0.9
2024-01-28T00:25:56.536Z,0.8
2024-01-28T00:27:10.829Z,0.8
2024-01-28T00:28:25.122Z,0.8
2024-01-28T00:29:39.416Z,0.8
2024-01-28T00:30:53.709Z,0.8
2024-01-28T00:32:07.023Z,0.8
2024-01-28T00:33:20.333Z,0.8
2024-01-28T00:34:34.626Z,0.8
2024-01-28T00:35:48.919Z,0.8
2024-01-28T00:37:03.212Z,0.8
2024-01-28T00:38:17.506Z,0.8
2024-01-28T00:39:31.799Z,0.7
2024-01-28T00:40:46.092Z,0.8
2024-01-28T00:42:00.385Z,0.7
2024-01-28T00:43:14.678Z,0.7
2024-01-28T00:44:28.972Z,0.7
2024-01-28T00:45:43.265Z,0.7
2024-01-28T00:46:57.558Z,0.7
2024-01-28T00:48:11.851Z,0.7
2024-01-28T00:49:25.161Z,0.7
2024-01-28T00:50:39.454Z,0.7
2024-01-28T00:51:53.747Z,0.7
2024-01-28T00:53:08.040Z,0.6
2024-01-28T00:54:22.333Z,0.6
2024-01-28T00:55:36.627Z,0.7
2024-01-28T00:56:49.941Z,0.6
2024-01-28T00:58:03.250Z,0.6
2024-01-28T01:00:31.837Z,0.6
2024-01-28T01:01:46.130Z,0.6
2024-01-28T01:02:59.445Z,0.6
2024-01-28T01:04:13.738Z,0.6
2024-01-28T01:05:28.031Z,0.5
2024-01-28T01:06:42.317Z,0.5
2024-01-28T01:07:56.618Z,0.4
2024-01-28T01:10:25.204Z,0.3
2024-01-28T01:11:38.518Z,0.3
2024-01-28T01:12:51.828Z,0.3
2024-01-28T01:14:06.121Z,0.2
2024-01-28T01:15:20.414Z,0.2
2024-01-28T01:16:34.708Z,0.2
2024-01-28T01:17:49.001Z,0.2
2024-01-28T01:19:03.295Z,0.3
2024-01-28T01:20:17.588Z,0.3
2024-01-28T01:21:31.881Z,0.4
2024-01-28T01:22:46.175Z,0.4
2024-01-28T01:23:59.489Z,0.4
2024-01-28T01:25:12.804Z,0.3
2024-01-28T01:26:26.113Z,0.3
2024-01-28T01:27:40.406Z,0.4
2024-01-28T01:30:08.993Z,0.3
2024-01-28T01:31:23.286Z,0.3
2024-01-28T01:32:37.579Z,0.3
2024-01-28T01:33:51.872Z,0.3
2024-01-28T01:35:06.166Z,0.3
2024-01-28T01:36:20.459Z,0.3
2024-01-28T01:37:34.752Z,0.2
2024-01-28T01:38:49.045Z,0.2
2024-01-28T01:40:03.339Z,0.3
2024-01-28T01:41:17.632Z,0.2
2024-01-28T01:42:30.941Z,0.2
2024-01-28T01:43:45.234Z,0.2
2024-01-28T01:44:59.528Z,0.3
2024-01-28T01:46:13.821Z,0.3
2024-01-28T01:47:28.114Z,0.3
2024-01-28T01:48:42.407Z,0.3
2024-01-28T01:49:56.701Z,0.3
2024-01-28T01:51:10.015Z,0.3
2024-01-28T01:52:23.325Z,0.4
2024-01-28T01:53:37.618Z,0.4
2024-01-28T01:54:51.911Z,0.4
2024-01-28T01:56:06.204Z,0.4
2024-01-28T01:57:20.498Z,0.4
2024-01-28T01:58:34.792Z,0.4
2024-01-28T01:59:49.085Z,0.4
2024-01-28T02:01:03.378Z,0.3
2024-01-28T02:02:17.672Z,0.4
2024-01-28T02:03:31.965Z,0.4
2024-01-28T02:04:46.258Z,0.4
2024-01-28T02:06:00.551Z,0.4
2024-01-28T02:07:14.844Z,0.4
2024-01-28T02:08:28.154Z,0.4
2024-01-28T02:09:42.447Z,0.5
2024-01-28T02:10:56.740Z,0.5
2024-01-28T02:12:11.033Z,0.6
2024-01-28T02:13:25.327Z,0.5
2024-01-28T02:14:39.620Z,0.6
2024-01-28T02:15:52.935Z,0.6
2024-01-28T02:17:06.249Z,0.6
2024-01-28T02:18:19.559Z,0.5
2024-01-28T02:19:33.852Z,0.5
2024-01-28T02:20:48.145Z,0.5
2024-01-28T02:22:02.438Z,0.4
2024-01-28T02:23:16.731Z,0.4
2024-01-28T02:24:31.025Z,0.3
2024-01-28T02:25:45.318Z,0.3
2024-01-28T02:26:59.611Z,0.3
2024-01-28T02:28:13.905Z,0.3
2024-01-28T02:29:28.188Z,0.2
2024-01-28T02:30:42.491Z,0.3
2024-01-28T02:31:56.784Z,0.2
2024-01-28T02:33:11.077Z,0.3
2024-01-28T02:34:24.387Z,0.2
2024-01-28T02:35:38.680Z,0.2
2024-01-28T02:36:52.973Z,0.2
2024-01-28T02:38:07.267Z,0.2
2024-01-28T02:39:21.560Z,0.2
2024-01-28T02:40:35.853Z,0.2
2024-01-28T02:41:50.146Z,0.2
2024-01-28T02:43:04.440Z,0.2
2024-01-28T02:44:18.733Z,0.2
2024-01-28T02:46:47.320Z,0.2
2024-01-28T02:48:01.614Z,0.2
2024-01-28T02:49:15.907Z,0.2
2024-01-28T02:50:29.216Z,0.2
2024-01-28T02:51:43.510Z,0.2
2024-01-28T02:52:57.803Z,0.2
2024-01-28T02:54:12.096Z,0.2
2024-01-28T02:55:26.389Z,0.2
2024-01-28T02:56:40.683Z,0.2
2024-01-28T02:57:54.976Z,0.2
2024-01-28T02:59:09.269Z,0.2
2024-01-28T03:00:23.563Z,0.2
2024-01-28T03:01:37.856Z,0.2
2024-01-28T03:02:52.149Z,0.2
2024-01-28T03:04:06.442Z,0.2
2024-01-28T03:05:20.735Z,0.2
2024-01-28T03:06:34.045Z,0.2
2024-01-28T03:07:48.338Z,0.2
2024-01-28T03:09:02.631Z,0.2
2024-01-28T03:10:16.925Z,0.2
2024-01-28T03:11:31.218Z,0.2
2024-01-28T03:12:45.511Z,0.2
2024-01-28T03:13:59.805Z,0.1
2024-01-28T03:15:13.119Z,0.2
2024-01-28T03:16:26.428Z,0.1
2024-01-28T03:17:40.722Z,0.1
2024-01-28T03:18:55.015Z,0.1
2024-01-28T03:20:09.308Z,0.1
2024-01-28T03:21:23.601Z,0.1
2024-01-28T03:22:37.895Z,0.1
2024-01-28T03:23:52.188Z,0.1
2024-01-28T03:25:06.482Z,0.2
2024-01-28T03:26:20.775Z,0.2
2024-01-28T03:27:35.068Z,0.2
2024-01-28T03:28:49.361Z,0.2
2024-01-28T03:30:03.654Z,0.2
2024-01-28T03:31:17.948Z,0.2
2024-01-28T03:32:31.257Z,0.1
2024-01-28T03:33:45.551Z,0.1
2024-01-28T03:34:59.844Z,0.1
2024-01-28T03:36:14.137Z,0.1
2024-01-28T03:37:28.430Z,0.1
2024-01-28T03:39:57.017Z,0.1
2024-01-28T03:41:10.331Z,0.1
2024-01-28T03:42:23.646Z,0.1
2024-01-28T03:43:36.955Z,0.1
2024-01-28T03:44:51.248Z,0.1
2024-01-28T03:46:05.542Z,0.1
2024-01-28T03:47:19.835Z,0.1
2024-01-28T03:48:34.129Z,0.1
2024-01-28T03:49:48.422Z,0.1
2024-01-28T03:51:02.715Z,0.1
2024-01-28T03:52:17.008Z,0.1
2024-01-28T03:53:31.301Z,0.1
2024-01-28T03:54:45.595Z,0.1
2024-01-28T03:55:59.888Z,0.1
2024-01-28T03:57:14.181Z,0.1
2024-01-28T03:58:28.475Z,0.1
2024-01-28T03:59:41.784Z,0
2024-01-28T04:00:56.077Z,0
2024-01-28T04:02:10.370Z,0
2024-01-28T04:03:24.664Z,0
2024-01-28T04:04:38.957Z,0
2024-01-28T04:05:53.250Z,-0.1
2024-01-28T04:07:06.565Z,-0.1
2024-01-28T04:08:19.874Z,-0.1
2024-01-28T04:09:34.167Z,-0.1
2024-01-28T04:10:48.461Z,-0.2
2024-01-28T04:12:02.754Z,-0.2
2024-01-28T04:13:17.047Z,-0.2
2024-01-28T04:14:31.341Z,-0.2
2024-01-28T04:15:45.634Z,-0.2
2024-01-28T04:16:59.927Z,-0.2
2024-01-28T04:18:14.220Z,-0.2
2024-01-28T04:19:28.514Z,-0.2
2024-01-28T04:20:42.807Z,-0.2
2024-01-28T04:21:57.100Z,-0.3
2024-01-28T04:23:11.394Z,-0.3
2024-01-28T04:24:24.703Z,-0.3
2024-01-28T04:25:38.996Z,-0.3
2024-01-28T04:26:53.290Z,-0.3
2024-01-28T04:28:07.583Z,-0.4
2024-01-28T04:29:21.876Z,-0.4
2024-01-28T04:30:36.169Z,-0.4
2024-01-28T04:31:49.484Z,-0.3
2024-01-28T04:33:02.799Z,-0.4
2024-01-28T04:34:16.107Z,-0.5
2024-01-28T04:35:30.402Z,-0.5
2024-01-28T04:36:44.695Z,-0.6
2024-01-28T04:37:58.988Z,-0.6
2024-01-28T04:39:13.281Z,-0.7
2024-01-28T04:40:27.574Z,-0.7
2024-01-28T04:41:41.868Z,-0.7
2024-01-28T04:42:56.161Z,-0.7
2024-01-28T04:44:10.454Z,-0.7
2024-01-28T04:45:24.748Z,-0.6
2024-01-28T04:46:39.041Z,-0.6
2024-01-28T04:47:53.334Z,-0.6
2024-01-28T04:49:07.627Z,-0.6
2024-01-28T04:50:20.937Z,-0.6
2024-01-28T04:51:35.230Z,-0.5
2024-01-28T04:52:49.523Z,-0.5
2024-01-28T04:54:03.816Z,-0.5
2024-01-28T04:55:18.110Z,-0.5
2024-01-28T04:56:32.403Z,-0.5
2024-01-28T04:57:45.718Z,-0.5
2024-01-28T04:58:59.027Z,-0.5
2024-01-28T05:00:13.320Z,-0.5
2024-01-28T05:01:27.614Z,-0.5
2024-01-28T05:02:41.908Z,-0.6
2024-01-28T05:03:56.197Z,-0.6
2024-01-28T05:05:10.494Z,-0.6
2024-01-28T05:06:24.788Z,-0.6
2024-01-28T05:07:39.081Z,-0.6
2024-01-28T05:08:53.375Z,-0.6
2024-01-28T05:10:07.668Z,-0.6
2024-01-28T05:12:35.276Z,-0.6
2024-01-28T05:13:48.590Z,-0.5
2024-01-28T05:15:02.874Z,-0.6
2024-01-28T05:16:17.177Z,-0.6
2024-01-28T05:17:31.470Z,-0.6
2024-01-28T05:18:45.764Z,-0.6
2024-01-28T05:20:00.057Z,-0.5
2024-01-28T05:21:14.351Z,-0.6
2024-01-28T05:22:28.644Z,-0.6
2024-01-28T05:23:41.959Z,-0.6
2024-01-28T05:24:55.268Z,-0.6
2024-01-28T05:26:09.561Z,-0.6
2024-01-28T05:27:23.854Z,-0.6
2024-01-28T05:28:38.148Z,-0.6
2024-01-28T05:29:52.447Z,-0.6
2024-01-28T05:31:06.734Z,-0.6
2024-01-28T05:32:21.028Z,-0.6
2024-01-28T05:33:35.321Z,-0.6
2024-01-28T05:34:49.615Z,-0.6
2024-01-28T05:36:03.908Z,-0.6
2024-01-28T05:37:18.201Z,-0.6
2024-01-28T05:38:32.494Z,-0.6
2024-01-28T05:39:46.788Z,-0.5
2024-01-28T05:41:00.099Z,-0.6
2024-01-28T05:42:14.390Z,-0.5
2024-01-28T05:43:28.684Z,-0.6
2024-01-28T05:44:42.977Z,-0.6
2024-01-28T05:45:57.271Z,-0.5
2024-01-28T05:47:11.564Z,-0.6
2024-01-28T05:48:24.879Z,-0.6
2024-01-28T05:49:38.188Z,-0.6
2024-01-28T05:50:52.481Z,-0.6
2024-01-28T05:52:06.775Z,-0.6
2024-01-28T05:53:21.068Z,-0.6
2024-01-28T05:54:35.361Z,-0.6
2024-01-28T05:55:49.655Z,-0.7
2024-01-28T05:57:03.948Z,-0.7
2024-01-28T05:58:18.242Z,-0.6
2024-01-28T05:59:32.535Z,-0.6
2024-01-28T06:00:46.828Z,-0.6
2024-01-28T06:02:01.121Z,-0.6
2024-01-28T06:03:15.415Z,-0.6
2024-01-28T06:04:29.708Z,-0.6
2024-01-28T06:05:43.018Z,-0.6
2024-01-28T06:06:57.311Z,-0.6
2024-01-28T06:08:11.551Z,-0.6
2024-01-28T06:09:25.844Z,-0.7
2024-01-28T06:10:40.138Z,-0.7
2024-01-28T06:11:54.431Z,-0.6
2024-01-28T06:13:07.703Z,-0.7
2024-01-28T06:14:21.017Z,-0.7
2024-01-28T06:15:34.327Z,-0.7
2024-01-28T06:16:48.621Z,-0.7
2024-01-28T06:18:02.915Z,-0.7
2024-01-28T06:19:17.165Z,-0.7
2024-01-28T06:20:31.404Z,-0.7
2024-01-28T06:21:45.644Z,-0.7
2024-01-28T06:22:59.884Z,-0.7
2024-01-28T06:24:14.124Z,-0.8
2024-01-28T06:25:28.363Z,-0.8
2024-01-28T06:26:42.602Z,-0.8
2024-01-28T06:27:56.841Z,-0.8
2024-01-28T06:29:11.081Z,-0.8
2024-01-28T06:30:25.320Z,-0.9
2024-01-28T06:31:38.576Z,-0.9
2024-01-28T06:34:07.055Z,-1
2024-01-28T06:35:21.294Z,-1
2024-01-28T06:36:35.533Z,-1
2024-01-28T06:37:49.773Z,-1
2024-01-28T06:39:04.012Z,-1
2024-01-28T06:40:17.273Z,-1
2024-01-28T06:41:30.533Z,-1
2024-01-28T06:42:43.789Z,-1
2024-01-28T06:43:58.028Z,-1
2024-01-28T06:45:12.268Z,-1.1
2024-01-28T06:46:26.507Z,-1.1
2024-01-28T06:47:40.747Z,-1.1
2024-01-28T06:48:54.982Z,-1.2
2024-01-28T06:50:09.225Z,-1.3
2024-01-28T06:51:23.465Z,-1.3
2024-01-28T06:52:37.704Z,-1.3
2024-01-28T06:53:51.943Z,-1.3
2024-01-28T06:55:06.183Z,-1.2
2024-01-28T06:56:20.422Z,-1.2
2024-01-28T06:57:34.662Z,-1.2
2024-01-28T06:58:47.917Z,-1.1
2024-01-28T07:00:02.157Z,-1.1
2024-01-28T07:01:16.396Z,-1.1
2024-01-28T07:02:30.635Z,-1.1
2024-01-28T07:03:44.875Z,-1.1
2024-01-28T07:04:59.114Z,-1.1
2024-01-28T07:06:12.375Z,-1
2024-01-28T07:07:25.630Z,-1
2024-01-28T07:08:39.870Z,-1
2024-01-28T07:09:54.109Z,-1
2024-01-28T07:11:08.349Z,-1
2024-01-28T07:12:22.588Z,-1.1
2024-01-28T07:13:36.827Z,-1
2024-01-28T07:14:51.067Z,-1
2024-01-28T07:16:05.306Z,-1
2024-01-28T07:17:19.545Z,-1
2024-01-28T07:18:33.785Z,-0.9
2024-01-28T07:19:48.024Z,-0.9
2024-01-28T07:21:02.264Z,-1
2024-01-28T07:22:16.503Z,-1
2024-01-28T07:23:29.758Z,-0.9
2024-01-28T07:24:43.998Z,-0.9
2024-01-28T07:25:58.237Z,-0.9
2024-01-28T07:27:12.477Z,-0.9
2024-01-28T07:28:26.717Z,-0.9
2024-01-28T07:29:40.956Z,-0.9
2024-01-28T07:30:54.217Z,-0.8
2024-01-28T07:33:21.712Z,-0.7
2024-01-28T07:34:35.951Z,-0.6
2024-01-28T07:35:50.191Z,-0.5
2024-01-28T07:37:04.430Z,-0.4
2024-01-28T07:38:18.669Z,-0.3
2024-01-28T07:40:47.148Z,-0.2
2024-01-28T07:42:01.387Z,-0.1
2024-01-28T07:43:15.627Z,-0.1
2024-01-28T07:44:29.866Z,0
2024-01-28T07:45:43.127Z,0
2024-01-28T07:46:56.382Z,0
2024-01-28T07:48:10.621Z,0
2024-01-28T07:49:24.860Z,0
2024-01-28T07:50:39.100Z,0.1
2024-01-28T07:51:53.339Z,0.2
2024-01-28T07:53:07.578Z,0.2
2024-01-28T07:54:21.817Z,0.3
2024-01-28T07:55:36.057Z,0.3
2024-01-28T07:56:50.296Z,0.4
2024-01-28T07:58:03.557Z,0.5
2024-01-28T07:59:16.812Z,0.5
2024-01-28T08:00:31.051Z,0.6
2024-01-28T08:01:45.290Z,0.7
2024-01-28T08:02:59.529Z,0.7
2024-01-28T08:04:13.768Z,0.8
2024-01-28T08:05:28.008Z,0.9
2024-01-28T08:06:42.247Z,0.9
2024-01-28T08:07:56.486Z,0.9
2024-01-28T08:09:10.725Z,1
2024-01-28T08:10:24.964Z,1.1
2024-01-28T08:11:39.203Z,1.2
2024-01-28T08:12:53.442Z,1.2
2024-01-28T08:14:07.682Z,1.3
2024-01-28T08:15:20.937Z,1.4
2024-01-28T08:16:35.177Z,1.5
2024-01-28T08:17:49.416Z,1.5
2024-01-28T08:19:03.655Z,1.6
2024-01-28T08:20:17.895Z,1.6
2024-01-28T08:21:32.134Z,1.7
2024-01-28T08:22:46.373Z,1.8
2024-01-28T08:24:00.612Z,1.9
2024-01-28T08:25:14.851Z,1.9
2024-01-28T08:26:29.090Z,2
2024-01-28T08:27:43.329Z,2.1
2024-01-28T08:28:57.568Z,2.1
2024-01-28T08:30:11.807Z,2.1
2024-01-28T08:31:25.062Z,2.2
2024-01-28T08:32:39.301Z,2.3
2024-01-28T08:33:52.574Z,2.3
2024-01-28T08:35:06.801Z,2.4
2024-01-28T08:36:20.061Z,2.5
2024-01-28T08:37:33.316Z,2.5
2024-01-28T08:38:47.555Z,2.5
2024-01-28T08:40:01.794Z,2.5
2024-01-28T08:41:16.033Z,2.5
2024-01-28T08:42:30.272Z,2.6
2024-01-28T08:43:44.511Z,2.6
2024-01-28T08:44:58.750Z,2.6
2024-01-28T08:46:12.989Z,2.6
2024-01-28T08:47:27.228Z,2.7
2024-01-28T08:48:41.467Z,2.7
2024-01-28T08:49:55.706Z,2.8
2024-01-28T08:51:09.945Z,2.8
2024-01-28T08:52:24.184Z,2.9
2024-01-28T08:53:37.439Z,3
2024-01-28T08:54:51.678Z,3.1
2024-01-28T08:56:05.917Z,3.2
2024-01-28T08:57:20.156Z,3.3
2024-01-28T08:58:34.395Z,3.4
2024-01-28T08:59:48.634Z,3.5
2024-01-28T09:01:02.873Z,3.5
2024-01-28T09:02:17.112Z,3.6
2024-01-28T09:03:31.350Z,3.7
2024-01-28T09:04:45.591Z,3.8
2024-01-28T09:05:59.829Z,3.9
2024-01-28T09:07:14.068Z,3.9
2024-01-28T09:08:28.307Z,4
2024-01-28T09:09:41.562Z,4
2024-01-28T09:10:55.801Z,4.1
2024-01-28T09:12:10.040Z,4.1
2024-01-28T09:13:24.278Z,4.2
2024-01-28T09:14:38.517Z,4.3
2024-01-28T09:15:52.756Z,4.4
2024-01-28T09:17:06.995Z,4.5
2024-01-28T09:18:21.234Z,4.6
2024-01-28T09:19:35.473Z,4.7
2024-01-28T09:20:49.711Z,4.7
2024-01-28T09:22:02.971Z,4.8
2024-01-28T09:23:17.210Z,4.9
2024-01-28T09:24:31.449Z,5
2024-01-28T09:25:45.688Z,5
2024-01-28T09:26:59.927Z,5.1
2024-01-28T09:28:14.165Z,5.2
2024-01-28T09:29:28.404Z,5.2
2024-01-28T09:30:42.643Z,5.3
2024-01-28T09:31:56.882Z,5.3
2024-01-28T09:33:11.120Z,5.4
2024-01-28T09:34:25.359Z,5.4
2024-01-28T09:35:39.598Z,5.4
2024-01-28T09:36:53.837Z,5.5
2024-01-28T09:38:07.091Z,5.6
2024-01-28T09:39:21.330Z,5.7
2024-01-28T09:40:35.570Z,5.7
2024-01-28T09:41:49.808Z,5.8
2024-01-28T09:43:04.047Z,5.9
2024-01-28T09:44:18.286Z,5.9
2024-01-28T09:45:32.524Z,6
2024-01-28T09:46:46.763Z,6
2024-01-28T09:48:01.002Z,6.1
2024-01-28T09:49:15.240Z,6.1
2024-01-28T09:50:29.479Z,6.1
2024-01-28T09:51:43.718Z,6.1
2024-01-28T09:52:57.956Z,6
2024-01-28T09:54:11.211Z,6
2024-01-28T09:55:25.450Z,6.1
2024-01-28T09:56:39.688Z,6.2
2024-01-28T09:57:53.927Z,6.3
2024-01-28T09:59:08.166Z,6.4
2024-01-28T10:00:22.405Z,6.4
2024-01-28T10:01:36.643Z,6.5
2024-01-28T10:02:50.882Z,6.6
2024-01-28T10:04:05.120Z,6.7
2024-01-28T10:05:19.359Z,6.7
2024-01-28T10:06:33.598Z,6.8
2024-01-28T10:07:47.836Z,6.9
2024-01-28T10:09:02.075Z,6.8
2024-01-28T10:10:15.330Z,6.8
2024-01-28T10:11:29.569Z,6.6
2024-01-28T10:12:43.807Z,6.4
2024-01-28T10:13:58.046Z,6.4
2024-01-28T10:15:12.284Z,6.3
2024-01-28T10:16:26.523Z,6.2
2024-01-28T10:17:40.761Z,6.2
2024-01-28T10:18:55.000Z,6.1
2024-01-28T10:20:09.239Z,6.1
2024-01-28T10:21:23.478Z,6.2
2024-01-28T10:22:36.738Z,6.4
2024-01-28T10:23:49.998Z,6.5
2024-01-28T10:25:04.358Z,6.5
2024-01-28T10:26:18.596Z,6.5
2024-01-28T10:27:32.835Z,6.5
2024-01-28T10:28:47.073Z,6.5
2024-01-28T10:30:01.312Z,6.6
2024-01-28T10:31:15.551Z,6.7
2024-01-28T10:32:29.789Z,6.7
2024-01-28T10:33:44.028Z,6.7
2024-01-28T10:34:58.267Z,6.6
2024-01-28T10:36:12.505Z,6.5
2024-01-28T10:37:26.745Z,6.5
2024-01-28T10:38:40.983Z,6.5
2024-01-28T10:39:55.222Z,6.5
2024-01-28T10:41:08.477Z,6.6
2024-01-28T10:42:22.715Z,6.6
2024-01-28T10:43:36.954Z,6.7
2024-01-28T10:44:51.193Z,6.8
2024-01-28T10:46:05.431Z,6.8
2024-01-28T10:47:19.670Z,6.8
2024-01-28T10:48:33.908Z,6.9
2024-01-28T10:49:48.147Z,6.9
2024-01-28T10:51:02.385Z,6.8
2024-01-28T10:52:16.624Z,6.8
2024-01-28T10:53:30.863Z,6.8
2024-01-28T10:54:45.102Z,6.7
2024-01-28T10:55:59.340Z,6.7
2024-01-28T10:57:12.595Z,6.7
2024-01-28T10:58:26.833Z,6.8
2024-01-28T10:59:41.072Z,6.7
2024-01-28T11:00:55.312Z,6.7
2024-01-28T11:02:09.550Z,6.7
2024-01-28T11:03:23.789Z,6.7
2024-01-28T11:04:38.027Z,6.8
2024-01-28T11:05:52.266Z,6.7
2024-01-28T11:07:06.505Z,6.7
2024-01-28T11:08:20.744Z,6.7
2024-01-28T11:09:34.982Z,6.7
2024-01-28T11:10:49.221Z,6.7
2024-01-28T11:12:03.459Z,6.7
2024-01-28T11:13:16.714Z,6.7
2024-01-28T11:14:30.936Z,6.8
2024-01-28T11:15:45.191Z,6.8
2024-01-28T11:16:59.430Z,6.9
2024-01-28T11:18:13.669Z,7
2024-01-28T11:19:27.907Z,6.9
2024-01-28T11:20:42.146Z,7
2024-01-28T11:21:56.385Z,7
2024-01-28T11:23:10.623Z,6.8
2024-01-28T11:24:24.862Z,6.8
2024-01-28T11:25:39.100Z,6.8
2024-01-28T11:26:53.339Z,6.8
2024-01-28T11:28:07.578Z,6.9
2024-01-28T11:30:35.071Z,7
2024-01-28T11:31:49.310Z,7
2024-01-28T11:33:03.548Z,7.1
2024-01-28T11:34:17.787Z,7.1
2024-01-28T11:35:32.025Z,7.1
2024-01-28T11:38:00.503Z,7.2
2024-01-28T11:39:14.741Z,7.3
2024-01-28T11:40:28.968Z,7.3
2024-01-28T11:41:43.219Z,7.3
2024-01-28T11:42:57.458Z,7.3
2024-01-28T11:44:11.685Z,7.3
2024-01-28T11:45:25.935Z,7.3
2024-01-28T11:46:39.190Z,7.4
2024-01-28T11:47:53.428Z,7.4
2024-01-28T11:49:07.667Z,7.4
2024-01-28T11:50:21.906Z,7.3
2024-01-28T11:52:50.383Z,7.4
2024-01-28T11:54:03.643Z,7.4
2024-01-28T11:55:16.897Z,7.3
2024-01-28T11:56:31.136Z,7.3
2024-01-28T11:57:45.374Z,7.4
2024-01-28T11:58:59.613Z,7.3
2024-01-28T12:00:13.852Z,7.3
2024-01-28T12:01:28.090Z,7.3
2024-01-28T12:02:42.329Z,7.4
2024-01-28T12:03:56.567Z,7.4
2024-01-28T12:05:10.806Z,7.4
2024-01-28T12:06:24.066Z,7.5
2024-01-28T12:07:37.321Z,7.5
2024-01-28T12:08:51.559Z,7.5
2024-01-28T12:10:05.798Z,7.5
2024-01-28T12:11:20.036Z,7.5
2024-01-28T12:12:34.275Z,7.6
2024-01-28T12:13:48.514Z,7.6
2024-01-28T12:15:02.752Z,7.6
2024-01-28T12:16:16.991Z,7.6
2024-01-28T12:17:31.229Z,7.7
2024-01-28T12:18:45.468Z,7.7
2024-01-28T12:19:59.706Z,7.7
2024-01-28T12:21:13.945Z,7.7
2024-01-28T12:22:28.183Z,7.7
2024-01-28T12:23:41.438Z,7.7
2024-01-28T12:24:55.677Z,7.7
2024-01-28T12:26:09.915Z,7.8
2024-01-28T12:27:24.154Z,7.8
2024-01-28T12:28:38.392Z,7.8
2024-01-28T12:29:52.631Z,7.8
2024-01-28T12:31:06.869Z,7.9
2024-01-28T12:32:21.108Z,7.9
2024-01-28T12:33:35.346Z,7.9
2024-01-28T12:34:49.586Z,7.9
2024-01-28T12:36:03.825Z,7.9
2024-01-28T12:37:18.063Z,7.9
2024-01-28T12:38:32.302Z,7.9
2024-01-28T12:39:45.556Z,7.8
2024-01-28T12:40:59.795Z,7.8
2024-01-28T12:42:14.033Z,7.8
2024-01-28T12:43:28.272Z,7.8
2024-01-28T12:44:42.510Z,7.9
2024-01-28T12:45:56.749Z,7.9
2024-01-28T12:47:10.988Z,7.9
2024-01-28T12:48:25.226Z,8
2024-01-28T12:49:39.465Z,8
2024-01-28T12:50:53.691Z,8
2024-01-28T12:52:07.942Z,8.1
2024-01-28T12:53:22.181Z,8.1
2024-01-28T12:54:36.419Z,8.1
2024-01-28T12:55:49.674Z,8.1
2024-01-28T12:57:03.913Z,8.1
2024-01-28T12:58:18.151Z,8.1
2024-01-28T12:59:32.390Z,8.1
2024-01-28T13:00:46.628Z,8.1
2024-01-28T13:02:00.867Z,8.1
2024-01-28T13:03:15.106Z,8.1
2024-01-28T13:04:29.344Z,8.1
2024-01-28T13:05:43.583Z,8.1
2024-01-28T13:06:57.822Z,8.1
2024-01-28T13:08:12.061Z,8.2
2024-01-28T13:09:26.300Z,8.2
2024-01-28T13:10:40.538Z,8.2
2024-01-28T13:11:53.793Z,8.2
2024-01-28T13:13:08.031Z,8.3
2024-01-28T13:14:22.270Z,8.3
2024-01-28T13:15:36.508Z,8.3
2024-01-28T13:16:50.747Z,8.3
2024-01-28T13:18:04.986Z,8.3
2024-01-28T13:19:19.224Z,8.3
2024-01-28T13:20:33.463Z,8.3
2024-01-28T13:21:47.701Z,8.3
2024-01-28T13:23:01.940Z,8.3
2024-01-28T13:24:16.178Z,8.4
2024-01-28T13:26:44.655Z,8.4
2024-01-28T13:27:57.910Z,8.3
2024-01-28T13:29:12.149Z,8.3
2024-01-28T13:30:25.409Z,8.3
2024-01-28T13:31:39.647Z,8.3
2024-01-28T13:32:53.886Z,8.2
2024-01-28T13:34:08.124Z,8.3
2024-01-28T13:35:22.363Z,8.3
2024-01-28T13:36:36.601Z,8.3
2024-01-28T13:37:50.839Z,8.3
2024-01-28T13:39:05.078Z,8.3
2024-01-28T13:40:19.317Z,8.4
2024-01-28T13:41:33.555Z,8.4
2024-01-28T13:42:47.794Z,8.4
2024-01-28T13:44:02.032Z,8.4
2024-01-28T13:45:16.271Z,8.4
2024-01-28T13:46:29.525Z,8.4
2024-01-28T13:47:43.764Z,8.4
2024-01-28T13:48:58.002Z,8.4
2024-01-28T13:50:12.241Z,8.4
2024-01-28T13:51:26.480Z,8.4
2024-01-28T13:52:40.699Z,8.5
2024-01-28T13:53:54.957Z,8.4
2024-01-28T13:55:09.195Z,8.5
2024-01-28T13:56:23.433Z,8.5
2024-01-28T13:57:37.672Z,8.5
2024-01-28T13:58:51.910Z,8.5
2024-01-28T14:00:06.149Z,8.5
2024-01-28T14:01:20.388Z,8.5
2024-01-28T14:02:33.642Z,8.5
2024-01-28T14:03:47.881Z,8.5
2024-01-28T14:05:02.119Z,8.5
2024-01-28T14:06:16.358Z,8.5
2024-01-28T14:07:30.596Z,8.5
2024-01-28T14:08:44.835Z,8.5
2024-01-28T14:09:59.073Z,8.6
2024-01-28T14:11:13.312Z,8.6
2024-01-28T14:12:27.551Z,8.6
2024-01-28T14:13:41.789Z,8.6
2024-01-28T14:14:56.028Z,8.6
2024-01-28T14:16:10.266Z,8.6
2024-01-28T14:17:24.505Z,8.5
2024-01-28T14:18:37.759Z,8.5
2024-01-28T14:19:51.998Z,8.5
2024-01-28T14:21:06.237Z,8.6
2024-01-28T14:22:20.475Z,8.6
2024-01-28T14:23:34.714Z,8.6
2024-01-28T14:24:48.953Z,8.6
2024-01-28T14:26:03.191Z,8.6
2024-01-28T14:27:17.431Z,8.5
2024-01-28T14:28:31.669Z,8.5
2024-01-28T14:29:45.908Z,8.5
2024-01-28T14:31:00.146Z,8.5
2024-01-28T14:32:14.385Z,8.5
2024-01-28T14:33:28.624Z,8.5
2024-01-28T14:34:41.878Z,8.5
2024-01-28T14:35:56.117Z,8.6
2024-01-28T14:37:10.356Z,8.5
2024-01-28T14:38:24.594Z,8.6
2024-01-28T14:39:38.833Z,8.5
2024-01-28T14:40:53.071Z,8.6
2024-01-28T14:42:07.310Z,8.5
2024-01-28T14:43:21.548Z,8.6
2024-01-28T14:44:35.787Z,8.6
2024-01-28T14:45:50.026Z,8.6
2024-01-28T14:47:04.264Z,8.6
2024-01-28T14:48:18.503Z,8.6
2024-01-28T14:49:32.741Z,8.6
2024-01-28T14:50:45.996Z,8.6
2024-01-28T14:52:00.234Z,8.6
2024-01-28T14:53:14.473Z,8.6
2024-01-28T14:54:28.711Z,8.6
2024-01-28T14:55:42.950Z,8.6
2024-01-28T14:56:57.189Z,8.6
2024-01-28T14:58:11.427Z,8.6
2024-01-28T14:59:25.666Z,8.6
2024-01-28T15:00:39.904Z,8.5
2024-01-28T15:01:54.143Z,8.5
2024-01-28T15:03:08.381Z,8.5
2024-01-28T15:04:22.620Z,8.5
2024-01-28T15:05:36.858Z,8.5
2024-01-28T15:06:50.113Z,8.4
2024-01-28T15:08:04.352Z,8.4
2024-01-28T15:09:18.590Z,8.4
2024-01-28T15:10:32.829Z,8.4
2024-01-28T15:11:47.067Z,8.4
2024-01-28T15:13:01.306Z,8.4
2024-01-28T15:14:15.544Z,8.4
2024-01-28T15:15:29.783Z,8.3
2024-01-28T15:16:44.021Z,8.3
2024-01-28T15:17:58.260Z,8.3
2024-01-28T15:19:12.498Z,8.3
2024-01-28T15:20:26.737Z,8.2
2024-01-28T15:21:40.975Z,8.2
2024-01-28T15:22:54.230Z,8.2
2024-01-28T15:24:08.469Z,8.1
2024-01-28T15:25:22.707Z,8.1
2024-01-28T15:26:36.946Z,8.1
2024-01-28T15:27:51.184Z,8.1
2024-01-28T15:29:05.423Z,8.1
2024-01-28T15:30:19.661Z,8
2024-01-28T15:31:33.900Z,7.9
2024-01-28T15:32:48.139Z,7.9
2024-01-28T15:34:02.377Z,7.8
2024-01-28T15:35:16.616Z,7.8
2024-01-28T15:36:30.854Z,7.8
2024-01-28T15:37:45.093Z,7.7
2024-01-28T15:38:58.348Z,7.8
2024-01-28T15:40:12.587Z,7.7
2024-01-28T15:41:26.826Z,7.6
2024-01-28T15:42:41.064Z,7.5
2024-01-28T15:43:55.295Z,7.2
2024-01-28T15:45:09.542Z,7
2024-01-28T15:46:23.780Z,7
2024-01-28T15:47:38.019Z,7
2024-01-28T15:48:52.258Z,6.9
2024-01-28T15:50:06.496Z,6.9
2024-01-28T15:51:20.735Z,6.9
2024-01-28T15:52:34.974Z,6.8
2024-01-28T15:53:49.212Z,6.9
2024-01-28T15:55:03.572Z,6.8
2024-01-28T15:56:17.811Z,6.6
2024-01-28T15:57:32.050Z,6.5
2024-01-28T15:58:46.288Z,6.4
2024-01-28T16:00:00.527Z,6.3
2024-01-28T16:01:14.766Z,6.2
2024-01-28T16:02:29.004Z,6
2024-01-28T16:03:43.243Z,6
2024-01-28T16:04:57.482Z,5.9
2024-01-28T16:06:11.720Z,5.9
2024-01-28T16:07:25.959Z,5.8
2024-01-28T16:08:40.198Z,5.7
2024-01-28T16:09:54.437Z,5.6
2024-01-28T16:11:07.692Z,5.5
2024-01-28T16:12:21.930Z,5.4
2024-01-28T16:13:36.169Z,5.3
2024-01-28T16:14:50.408Z,5.2
2024-01-28T16:16:04.647Z,5.1
2024-01-28T16:17:18.885Z,5
2024-01-28T16:18:33.124Z,4.9
2024-01-28T16:19:47.363Z,4.8
2024-01-28T16:21:01.602Z,4.8
2024-01-28T16:22:15.841Z,4.7
2024-01-28T16:23:30.080Z,4.7
2024-01-28T16:24:44.329Z,4.6
2024-01-28T16:25:58.623Z,4.6
2024-01-28T16:27:12.916Z,4.6
2024-01-28T16:28:26.225Z,4.6
2024-01-28T16:29:40.518Z,4.6
2024-01-28T16:30:54.811Z,4.6
2024-01-28T16:32:09.104Z,4.5
2024-01-28T16:33:23.397Z,4.5
2024-01-28T16:34:37.689Z,4.4
2024-01-28T16:35:51.982Z,4.4
2024-01-28T16:37:06.275Z,4.3
2024-01-28T16:38:20.568Z,4.2
2024-01-28T16:39:34.860Z,4.1
2024-01-28T16:40:49.153Z,4
2024-01-28T16:42:03.446Z,3.9
2024-01-28T16:43:17.739Z,3.8
2024-01-28T16:44:31.048Z,3.7
2024-01-28T16:45:45.341Z,3.7
2024-01-28T16:46:59.634Z,3.6
2024-01-28T16:48:13.927Z,3.5
2024-01-28T16:49:28.219Z,3.4
2024-01-28T16:50:42.512Z,3.4
2024-01-28T16:51:56.805Z,3.3
2024-01-28T16:53:11.098Z,3.3
2024-01-28T16:54:25.391Z,3.2
2024-01-28T16:55:39.684Z,3.2
2024-01-28T16:56:53.977Z,3.1
2024-01-28T16:58:08.271Z,3.1
2024-01-28T16:59:22.563Z,3
2024-01-28T17:00:35.873Z,3
2024-01-28T17:01:50.165Z,2.9
2024-01-28T17:03:04.458Z,2.8
2024-01-28T17:04:18.752Z,2.8
2024-01-28T17:05:33.044Z,2.7
2024-01-28T17:06:47.337Z,2.7
2024-01-28T17:08:01.630Z,2.7
2024-01-28T17:09:15.923Z,2.6
2024-01-28T17:10:30.216Z,2.6
2024-01-28T17:11:44.509Z,2.6
2024-01-28T17:12:58.802Z,2.6
2024-01-28T17:14:13.095Z,2.6
2024-01-28T17:15:27.388Z,2.5